|
公曆農曆對照

機場天氣預報 (TAF)

機場天氣預報 (TAF) 載述關於某個機場在預測期內預料會出現的氣象要素。

香港天文台在 19 年 02 月 18 日 19 時 00 分最新發出的香港國際機場天氣預報

TAF VHHH 181100Z 1812/1918 14010KT 8000 FEW010 SCT025 TX22/1906Z TN18/1823Z TEMPO 1812/1814 36010KT 4000 SHRA TEMPO 1814/1819 VRB15G25KT 2000 TSRA SHRA FEW008CB SCT020 TEMPO 1819/1824 VRB05KT 3500 SHRA FEW010CB SCT025 TEMPO 1900/1906 4000 SHRA=

(下次更新時間:19年02月19日01時00分)

機場天氣預報電碼經解碼後:-

香港天文台發出 2019 年 02 月 18 日 12 協調世界時 至 2019 年 02 月 19 日 18 協調世界時 的機場天氣預報:
 

時間(協調世界時) 能見度 天氣狀況 雲層 雲層高度
2019 年 02 月 18 日 12 時 至 2019 年 02 月 19 日 18 時 東南風 (140 o) 10 海里/小時 8 公里 無重要天氣狀況
1-2
3-4
1000 呎
2500 呎
2019 年 02 月 18 日 12 時 至 14 時 期間間中 北風 (360 o) 10 海里/小時 4000 米 驟雨
1-2
3-4
1000 呎
2500 呎
2019 年 02 月 18 日 14 時 至 19 時 期間間中 15 海里/小時,陣風達 25 海里/小時 (風向不定) 2000 米 雷暴及雨, 驟雨
1-2 積雨雲
3-4
800 呎
2000 呎
2019 年 02 月 18 日 19 時 至 24 時 期間間中 5 海里/小時 (風向不定) 3500 米 驟雨
1-2 積雨雲
3-4
1000 呎
2500 呎
2019 年 02 月 19 日 00 時 至 06 時 期間間中 東南風 (140 o) 10 海里/小時 4000 米 驟雨
1-2
3-4
1000 呎
2500 呎

時間(協調世界時) 氣溫
2019 年 02 月 19 日 06 時
最高22 oC
2019 年 02 月 18 日 23 時
最低18 oC

份: 雲層是以估計天空被雲遮蔽之總面積來評定。把天空分為八份,1 份即是八份之一的天空被雲遮蔽,2 份即是八份之二的天空被雲遮蔽,如此類推。
  0 份 = 天朗氣清,1-2 份 = 稀薄雲層,3-4 份 = 零散雲層,5-7 份 = 疏鬆雲層,8 份 = 天色陰暗。
若想進一步瞭解機場天氣預報(TAF)的編碼,請參看剖析TAF電碼的意義
若想進一步瞭解雲,請參看香港常見的雲
 
香港國際機場航空天氣報告資料 本港地區航空天氣預報
 
版權及聲明